KSFB/SFB METAR and TAF weather

Enter ICAO airport designator
Station Type Date Time Source
KSFB METAR 2019/10/15 08:53 UTC NOAA

KSFB 150853Z 00000KT 10SM CLR 22/21 A3005 RMK AO2 SLP174 T02220211 56010 $


Station Type Date Time Source
KSFB Decoded METAR 2019/10/15 08:53 UTC NOAA

ORLANDO SANFORD AIRPORT, FL, United States (KSFB) 28-47N 081-15W
Oct 15, 2019 - 04:53 AM EDT / 2019.10.15 0853 UTC
Wind: Calm:0
Visibility: 10 mile(s):0
Sky conditions: clear
Temperature: 72.0 F (22.2 C)
Dew Point: 70.0 F (21.1 C)
Relative Humidity: 93%
Pressure (altimeter): 30.05 in. Hg (1017 hPa)
Pressure tendency: 0.03 inches (1.0 hPa) lower than three hours ago
ob: KSFB 150853Z 00000KT 10SM CLR 22/21 A3005 RMK AO2 SLP174 T02220211 56010
cycle: 9

Station Type Date Time Source
KSFB TAF 2019/10/15 06:22 UTC NOAA

TAF KSFB 150520Z 1506/1606 VRB03KT P6SM SCT250
FM151500 15006KT P6SM FEW030 BKN200
FM152000 12008KT P6SM SCT050 SCT150 BKN200
FM160100 15004KT P6SM BKN150 BKN250

Example: see airport list